createdAt,value
2018-05-26T00:00:05.656Z,0
2018-05-26T00:01:05.906Z,0
2018-05-26T00:02:05.898Z,0
2018-05-26T00:03:05.893Z,0
2018-05-26T00:04:05.886Z,0
2018-05-26T00:05:06.145Z,0
2018-05-26T00:06:05.612Z,0
2018-05-26T00:07:05.867Z,0
2018-05-26T00:08:05.599Z,0
2018-05-26T00:09:06.106Z,0
2018-05-26T00:10:05.856Z,0
2018-05-26T00:11:05.573Z,0
2018-05-26T00:12:06.102Z,0
2018-05-26T00:13:06.086Z,0
2018-05-26T00:14:05.828Z,0
2018-05-26T00:15:05.807Z,0
2018-05-26T00:16:05.533Z,0
2018-05-26T00:17:05.528Z,0
2018-05-26T00:18:05.775Z,0
2018-05-26T00:19:05.800Z,0
2018-05-26T00:20:06.058Z,0
2018-05-26T00:21:05.755Z,0
2018-05-26T00:22:06.047Z,0
2018-05-26T00:23:05.991Z,0
2018-05-26T00:24:05.989Z,0
2018-05-26T00:25:05.715Z,0
2018-05-26T00:26:05.513Z,0
2018-05-26T00:27:05.705Z,0
2018-05-26T00:28:05.987Z,0
2018-05-26T00:29:05.426Z,0
2018-05-26T00:30:05.676Z,0
2018-05-26T00:31:05.414Z,0
2018-05-26T00:32:05.932Z,0
2018-05-26T00:33:05.398Z,0
2018-05-26T00:34:05.650Z,0
2018-05-26T00:35:06.312Z,0
2018-05-26T00:36:05.885Z,0
2018-05-26T00:37:05.630Z,0
2018-05-26T00:38:05.923Z,0
2018-05-26T00:39:05.606Z,0
2018-05-26T00:40:05.856Z,0
2018-05-26T00:41:05.591Z,0
2018-05-26T00:42:05.583Z,0
2018-05-26T00:43:05.843Z,0
2018-05-26T00:44:05.570Z,0
2018-05-26T00:45:05.560Z,0
2018-05-26T00:46:05.291Z,0
2018-05-26T00:47:05.310Z,0
2018-05-26T00:48:06.010Z,0
2018-05-26T00:49:05.533Z,0
2018-05-26T00:50:05.517Z,0
2018-05-26T00:51:05.774Z,0
2018-05-26T00:52:05.502Z,0
2018-05-26T00:53:05.490Z,0
2018-05-26T00:54:05.483Z,0
2018-05-26T00:55:05.746Z,0
2018-05-26T00:56:05.736Z,0
2018-05-26T00:57:05.471Z,0
2018-05-26T00:58:05.187Z,0
2018-05-26T00:59:05.700Z,0
2018-05-26T01:00:05.430Z,0
2018-05-26T01:01:05.163Z,0
2018-05-26T01:02:05.676Z,0
2018-05-26T01:03:05.714Z,0
2018-05-26T01:04:04.885Z,0
2018-05-26T01:05:05.401Z,0
2018-05-26T01:06:05.647Z,0
2018-05-26T01:07:05.635Z,0
2018-05-26T01:08:05.631Z,0
2018-05-26T01:09:05.376Z,0
2018-05-26T01:10:05.617Z,0
2018-05-26T01:11:05.344Z,0
2018-05-26T01:12:05.333Z,0
2018-05-26T01:13:05.329Z,0
2018-05-26T01:14:05.313Z,0
2018-05-26T01:15:05.581Z,0
2018-05-26T01:16:05.306Z,0
2018-05-26T01:17:05.287Z,0
2018-05-26T01:18:05.022Z,0
2018-05-26T01:19:05.539Z,0
2018-05-26T01:20:05.270Z,0
2018-05-26T01:21:05.253Z,0
2018-05-26T01:22:05.527Z,0
2018-05-26T01:23:04.721Z,0
2018-05-26T01:24:05.234Z,0
2018-05-26T01:25:05.485Z,0
2018-05-26T01:26:05.492Z,0
2018-05-26T01:27:04.952Z,0
2018-05-26T01:28:05.197Z,0
2018-05-26T01:29:05.200Z,0
2018-05-26T01:30:05.216Z,0
2018-05-26T01:31:04.912Z,0
2018-05-26T01:32:05.188Z,0
2018-05-26T01:33:05.159Z,0
2018-05-26T01:34:05.403Z,0
2018-05-26T01:35:04.880Z,0
2018-05-26T01:36:05.396Z,0
2018-05-26T01:37:04.868Z,0
2018-05-26T01:38:04.851Z,0
2018-05-26T01:39:05.107Z,0
2018-05-26T01:40:05.097Z,0
2018-05-26T01:41:04.829Z,0
2018-05-26T01:42:05.081Z,0
2018-05-26T01:43:05.066Z,0
2018-05-26T01:44:04.837Z,0
2018-05-26T01:45:04.798Z,0
2018-05-26T01:46:04.785Z,0
2018-05-26T01:47:04.777Z,0
2018-05-26T01:48:04.771Z,0
2018-05-26T01:49:05.022Z,0
2018-05-26T01:50:04.754Z,0
2018-05-26T01:51:05.041Z,0
2018-05-26T01:52:05.259Z,0
2018-05-26T01:53:04.988Z,0
2018-05-26T01:54:04.973Z,0
2018-05-26T01:55:05.276Z,0
2018-05-26T01:56:05.223Z,0
2018-05-26T01:57:04.434Z,0
2018-05-26T01:58:04.950Z,0
2018-05-26T01:59:05.213Z,0
2018-05-26T02:00:04.666Z,0
2018-05-26T02:01:05.157Z,0
2018-05-26T02:02:04.645Z,0
2018-05-26T02:03:05.173Z,0
2018-05-26T02:04:04.891Z,0
2018-05-26T02:05:05.142Z,0
2018-05-26T02:06:04.353Z,0
2018-05-26T02:07:05.128Z,0
2018-05-26T02:08:04.852Z,0
2018-05-26T02:09:04.589Z,0
2018-05-26T02:10:05.100Z,0
2018-05-26T02:11:04.792Z,0
2018-05-26T02:12:05.074Z,0
2018-05-26T02:13:05.085Z,0
2018-05-26T02:14:04.801Z,0
2018-05-26T02:15:04.791Z,0
2018-05-26T02:16:04.783Z,0
2018-05-26T02:17:04.517Z,0
2018-05-26T02:18:05.050Z,0
2018-05-26T02:19:05.029Z,0
2018-05-26T02:20:04.750Z,0
2018-05-26T02:21:04.745Z,0
2018-05-26T02:22:04.224Z,0
2018-05-26T02:23:04.986Z,0
2018-05-26T02:24:04.740Z,0
2018-05-26T02:25:04.966Z,0
2018-05-26T02:26:04.953Z,0
2018-05-26T02:27:04.948Z,0
2018-05-26T02:28:04.982Z,0
2018-05-26T02:29:04.671Z,0
2018-05-26T02:30:04.945Z,0
2018-05-26T02:31:04.394Z,0
2018-05-26T02:32:04.661Z,4
2018-05-26T02:33:04.638Z,4
2018-05-26T02:34:04.646Z,4
2018-05-26T02:35:04.615Z,0
2018-05-26T02:36:04.890Z,4
2018-05-26T02:37:04.338Z,4
2018-05-26T02:38:04.849Z,4
2018-05-26T02:39:04.839Z,8
2018-05-26T02:40:04.833Z,4
2018-05-26T02:41:04.577Z,8
2018-05-26T02:42:04.819Z,8
2018-05-26T02:43:04.305Z,12
2018-05-26T02:44:04.282Z,12
2018-05-26T02:45:04.788Z,12
2018-05-26T02:46:04.527Z,16
2018-05-26T02:47:04.251Z,20
2018-05-26T02:48:04.278Z,20
2018-05-26T02:49:04.234Z,20
2018-05-26T02:50:04.231Z,24
2018-05-26T02:51:04.494Z,28
2018-05-26T02:52:04.709Z,32
2018-05-26T02:53:04.203Z,36
2018-05-26T02:54:04.455Z,36
2018-05-26T02:55:04.181Z,48
2018-05-26T02:56:04.450Z,52
2018-05-26T02:57:04.715Z,56
2018-05-26T02:58:04.707Z,64
2018-05-26T02:59:04.415Z,72
2018-05-26T03:00:04.397Z,76
2018-05-26T03:01:04.646Z,84
2018-05-26T03:02:04.390Z,96
2018-05-26T03:03:04.635Z,104
2018-05-26T03:04:04.104Z,112
2018-05-26T03:05:04.370Z,124
2018-05-26T03:06:04.366Z,132
2018-05-26T03:07:04.594Z,148
2018-05-26T03:08:04.072Z,160
2018-05-26T03:09:04.327Z,172
2018-05-26T03:10:04.040Z,188
2018-05-26T03:11:04.306Z,200
2018-05-26T03:12:04.295Z,216
2018-05-26T03:13:04.023Z,228
2018-05-26T03:14:04.277Z,248
2018-05-26T03:15:04.274Z,264
2018-05-26T03:16:04.270Z,280
2018-05-26T03:17:04.505Z,304
2018-05-26T03:18:03.978Z,320
2018-05-26T03:19:03.964Z,340
2018-05-26T03:20:04.219Z,360
2018-05-26T03:21:04.435Z,384
2018-05-26T03:22:04.205Z,408
2018-05-26T03:23:04.188Z,432
2018-05-26T03:24:04.187Z,456
2018-05-26T03:25:04.426Z,484
2018-05-26T03:26:04.437Z,508
2018-05-26T03:27:04.154Z,536
2018-05-26T03:28:04.414Z,564
2018-05-26T03:29:03.876Z,592
2018-05-26T03:30:03.609Z,620
2018-05-26T03:31:03.864Z,648
2018-05-26T03:32:04.133Z,680
2018-05-26T03:33:04.360Z,712
2018-05-26T03:34:04.096Z,744
2018-05-26T03:35:03.824Z,776
2018-05-26T03:36:04.075Z,808
2018-05-26T03:37:04.065Z,840
2018-05-26T03:38:04.317Z,876
2018-05-26T03:39:04.306Z,912
2018-05-26T03:40:04.298Z,948
2018-05-26T03:41:04.515Z,992
2018-05-26T03:42:04.088Z,1028
2018-05-26T03:43:04.284Z,1068
2018-05-26T03:44:04.007Z,1104
2018-05-26T03:45:03.737Z,1148
2018-05-26T03:46:03.987Z,1188
2018-05-26T03:47:03.977Z,1232
2018-05-26T03:48:04.007Z,1272
2018-05-26T03:49:03.962Z,1316
2018-05-26T03:50:04.213Z,1360
2018-05-26T03:51:03.685Z,1404
2018-05-26T03:52:03.936Z,1448
2018-05-26T03:53:04.196Z,1488
2018-05-26T03:54:04.172Z,1532
2018-05-26T03:55:03.648Z,1580
2018-05-26T03:56:04.185Z,1620
2018-05-26T03:57:04.154Z,1664
2018-05-26T03:58:03.621Z,1704
2018-05-26T03:59:03.892Z,1736
2018-05-26T04:00:03.860Z,1780
2018-05-26T04:01:04.115Z,1812
2018-05-26T04:02:03.326Z,1848
2018-05-26T04:03:04.100Z,1884
2018-05-26T04:04:04.087Z,1920
2018-05-26T04:05:03.815Z,1964
2018-05-26T04:06:03.813Z,2000
2018-05-26T04:07:03.541Z,2036
2018-05-26T04:08:03.787Z,2072
2018-05-26T04:09:04.082Z,2108
2018-05-26T04:10:03.780Z,2140
2018-05-26T04:11:03.767Z,2172
2018-05-26T04:12:04.012Z,2204
2018-05-26T04:13:04.027Z,2240
2018-05-26T04:14:03.482Z,2272
2018-05-26T04:15:03.729Z,2308
2018-05-26T04:16:03.986Z,2344
2018-05-26T04:17:03.974Z,2380
2018-05-26T04:18:03.464Z,2412
2018-05-26T04:19:03.694Z,2444
2018-05-26T04:20:03.692Z,2480
2018-05-26T04:21:03.418Z,2512
2018-05-26T04:22:03.930Z,2540
2018-05-26T04:23:03.923Z,2572
2018-05-26T04:24:03.663Z,2608
2018-05-26T04:25:03.661Z,2644
2018-05-26T04:26:03.901Z,2672
2018-05-26T04:27:03.626Z,2708
2018-05-26T04:28:03.900Z,2744
2018-05-26T04:29:03.876Z,2780
2018-05-26T04:30:03.344Z,2816
2018-05-26T04:31:03.596Z,2852
2018-05-26T04:32:03.331Z,2888
2018-05-26T04:33:03.854Z,2932
2018-05-26T04:34:03.842Z,2968
2018-05-26T04:35:03.968Z,3004
2018-05-26T04:36:03.907Z,3032
2018-05-26T04:37:04.091Z,3068
2018-05-26T04:38:04.039Z,3096
2018-05-26T04:39:03.992Z,3128
2018-05-26T04:40:03.723Z,3156
2018-05-26T04:41:03.412Z,3188
2018-05-26T04:42:03.797Z,3220
2018-05-26T04:43:03.486Z,3256
2018-05-26T04:44:03.490Z,3288
2018-05-26T04:45:03.742Z,3320
2018-05-26T04:46:03.214Z,3348
2018-05-26T04:47:03.720Z,3364
2018-05-26T04:48:03.470Z,3380
2018-05-26T04:49:02.931Z,3396
2018-05-26T04:50:03.501Z,3428
2018-05-26T04:51:03.435Z,3452
2018-05-26T04:52:03.715Z,3480
2018-05-26T04:53:03.681Z,3516
2018-05-26T04:54:03.151Z,3552
2018-05-26T04:55:03.145Z,3584
2018-05-26T04:56:03.652Z,3616
2018-05-26T04:57:03.641Z,3648
2018-05-26T04:58:03.634Z,3684
2018-05-26T04:59:03.628Z,3716
2018-05-26T05:00:03.365Z,3740
2018-05-26T05:01:03.615Z,3764
2018-05-26T05:02:03.350Z,3788
2018-05-26T05:03:03.368Z,3804
2018-05-26T05:04:03.350Z,3828
2018-05-26T05:05:03.588Z,3844
2018-05-26T05:06:03.318Z,3868
2018-05-26T05:07:03.386Z,3896
2018-05-26T05:08:03.045Z,3924
2018-05-26T05:09:03.292Z,3956
2018-05-26T05:10:02.776Z,3984
2018-05-26T05:11:03.294Z,4012
2018-05-26T05:12:03.289Z,4044
2018-05-26T05:13:03.521Z,4068
2018-05-26T05:14:02.997Z,4092
2018-05-26T05:15:03.251Z,4108
2018-05-26T05:16:03.245Z,4128
2018-05-26T05:17:02.972Z,4144
2018-05-26T05:18:03.487Z,4164
2018-05-26T05:19:03.498Z,4180
2018-05-26T05:20:03.211Z,4196
2018-05-26T05:21:03.460Z,4220
2018-05-26T05:22:03.473Z,4248
2018-05-26T05:23:03.193Z,4272
2018-05-26T05:24:03.468Z,4296
2018-05-26T05:25:03.435Z,4316
2018-05-26T05:26:03.181Z,4328
2018-05-26T05:27:03.425Z,4344
2018-05-26T05:28:03.157Z,4360
2018-05-26T05:29:03.159Z,4372
2018-05-26T05:30:03.165Z,4388
2018-05-26T05:31:02.878Z,4404
2018-05-26T05:32:03.127Z,4424
2018-05-26T05:33:03.120Z,4448
2018-05-26T05:34:03.404Z,4460
2018-05-26T05:35:03.108Z,4476
2018-05-26T05:36:03.102Z,4492
2018-05-26T05:37:03.093Z,4504
2018-05-26T05:38:03.345Z,4520
2018-05-26T05:39:03.346Z,4532
2018-05-26T05:40:03.367Z,4544
2018-05-26T05:41:03.338Z,4560
2018-05-26T05:42:02.806Z,4568
2018-05-26T05:43:02.795Z,4580
2018-05-26T05:44:02.799Z,4592
2018-05-26T05:45:03.043Z,4612
2018-05-26T05:46:03.303Z,4624
2018-05-26T05:47:03.031Z,4636
2018-05-26T05:48:03.027Z,4664
2018-05-26T05:49:03.023Z,4696
2018-05-26T05:50:03.265Z,4732
2018-05-26T05:51:03.005Z,4776
2018-05-26T05:52:03.274Z,4820
2018-05-26T05:53:02.996Z,4856
2018-05-26T05:54:03.247Z,4892
2018-05-26T05:55:02.985Z,4924
2018-05-26T05:56:02.750Z,4948
2018-05-26T05:57:02.872Z,4968
2018-05-26T05:58:02.979Z,4980
2018-05-26T05:59:02.966Z,4984
2018-05-26T06:00:03.474Z,4996
2018-05-26T06:01:02.749Z,4992
2018-05-26T06:02:02.942Z,5000
2018-05-26T06:03:03.211Z,5004
2018-05-26T06:04:02.936Z,5012
2018-05-26T06:05:03.196Z,5020
2018-05-26T06:06:02.976Z,5032
2018-05-26T06:07:03.192Z,5044
2018-05-26T06:08:03.187Z,5044
2018-05-26T06:09:03.164Z,5064
2018-05-26T06:10:03.152Z,5084
2018-05-26T06:11:02.896Z,5108
2018-05-26T06:12:02.896Z,5140
2018-05-26T06:13:02.896Z,5168
2018-05-26T06:14:02.617Z,5204
2018-05-26T06:15:03.394Z,5240
2018-05-26T06:16:03.127Z,5268
2018-05-26T06:17:03.131Z,5296
2018-05-26T06:18:02.857Z,5320
2018-05-26T06:19:02.872Z,5336
2018-05-26T06:20:02.847Z,5356
2018-05-26T06:21:03.304Z,5380
2018-05-26T06:22:02.583Z,5404
2018-05-26T06:23:02.832Z,5432
2018-05-26T06:24:02.791Z,5452
2018-05-26T06:25:02.825Z,5476
2018-05-26T06:26:02.821Z,5496
2018-05-26T06:27:02.300Z,5516
2018-05-26T06:28:03.016Z,5556
2018-05-26T06:29:02.819Z,5744
2018-05-26T06:30:03.061Z,6716
2018-05-26T06:31:02.559Z,8616
2018-05-26T06:32:02.536Z,9652
2018-05-26T06:33:03.051Z,11508
2018-05-26T06:34:02.785Z,12528
2018-05-26T06:35:02.786Z,13228
2018-05-26T06:36:03.277Z,15444
2018-05-26T06:37:02.776Z,14116
2018-05-26T06:38:02.778Z,18720
2018-05-26T06:39:02.767Z,21472
2018-05-26T06:40:02.765Z,28992
2018-05-26T06:41:02.764Z,37824
2018-05-26T06:42:03.266Z,38880
2018-05-26T06:43:03.006Z,32384
2018-05-26T06:44:02.747Z,33408
2018-05-26T06:45:02.747Z,38208
2018-05-26T06:46:02.744Z,28480
2018-05-26T06:47:02.740Z,23808
2018-05-26T06:48:02.739Z,29088
2018-05-26T06:49:03.008Z,27776
2018-05-26T06:50:02.736Z,29216
2018-05-26T06:51:02.738Z,40384
2018-05-26T06:52:03.023Z,44064
2018-05-26T06:53:02.731Z,42080
2018-05-26T06:54:02.474Z,44000
2018-05-26T06:55:02.480Z,47360
2018-05-26T06:56:02.471Z,44928
2018-05-26T06:57:02.989Z,44576
2018-05-26T06:58:03.010Z,44960
2018-05-26T06:59:02.732Z,45888
2018-05-26T07:00:02.730Z,46720
2018-05-26T07:01:02.736Z,48736
2018-05-26T07:02:02.736Z,49472
2018-05-26T07:03:03.012Z,45824
2018-05-26T07:04:03.036Z,43904
2018-05-26T07:05:02.492Z,44800
2018-05-26T07:06:02.487Z,45984
2018-05-26T07:07:03.010Z,45536
2018-05-26T07:08:02.749Z,46272
2018-05-26T07:09:02.768Z,48416
2018-05-26T07:10:03.278Z,48192
2018-05-26T07:11:03.022Z,47328
2018-05-26T07:12:02.506Z,46528
2018-05-26T07:13:02.772Z,43616
2018-05-26T07:14:02.777Z,38208
2018-05-26T07:15:02.784Z,39008
2018-05-26T07:16:02.785Z,44000
2018-05-26T07:17:02.807Z,45056
2018-05-26T07:18:02.541Z,46272
2018-05-26T07:19:02.796Z,46336
2018-05-26T07:20:02.804Z,43264
2018-05-26T07:21:02.560Z,45376
2018-05-26T07:22:02.552Z,46304
2018-05-26T07:23:02.315Z,46816
2018-05-26T07:24:02.825Z,49440
2018-05-26T07:25:02.839Z,52960
2018-05-26T07:26:02.578Z,53600
2018-05-26T07:27:02.842Z,53184
2018-05-26T07:28:02.922Z,53536
2018-05-26T07:29:02.855Z,52832
2018-05-26T07:30:03.137Z,52992
2018-05-26T07:31:02.355Z,54016
2018-05-26T07:32:02.921Z,54496
2018-05-26T07:33:02.890Z,54432
2018-05-26T07:34:02.890Z,54496
2018-05-26T07:35:03.162Z,54944
2018-05-26T07:36:02.904Z,53504
2018-05-26T07:37:03.169Z,52032
2018-05-26T07:38:03.191Z,52544
2018-05-26T07:39:03.192Z,40576
2018-05-26T07:40:02.671Z,51776
2018-05-26T07:41:02.941Z,41152
2018-05-26T07:42:02.950Z,20832
2018-05-26T07:43:03.224Z,8504
2018-05-26T07:44:02.708Z,7752
2018-05-26T07:45:02.968Z,7452
2018-05-26T07:46:03.472Z,7248
2018-05-26T07:47:02.963Z,7096
2018-05-26T07:48:03.005Z,6940
2018-05-26T07:49:02.745Z,6848
2018-05-26T07:50:02.747Z,6724
2018-05-26T07:51:03.273Z,6628
2018-05-26T07:52:03.289Z,6568
2018-05-26T07:53:03.048Z,6528
2018-05-26T07:54:03.530Z,6484
2018-05-26T07:55:03.303Z,6448
2018-05-26T07:56:03.070Z,6420
2018-05-26T07:57:03.076Z,6396
2018-05-26T07:58:03.350Z,6376
2018-05-26T07:59:03.380Z,6344
2018-05-26T08:00:02.873Z,6332
2018-05-26T08:01:03.356Z,6332
2018-05-26T08:02:03.088Z,6300
2018-05-26T08:03:03.356Z,6228
2018-05-26T08:04:03.128Z,6172
2018-05-26T08:05:02.848Z,6128
2018-05-26T08:06:03.111Z,6088
2018-05-26T08:07:03.374Z,6072
2018-05-26T08:08:03.120Z,6100
2018-05-26T08:09:03.124Z,6140
2018-05-26T08:10:03.136Z,6176
2018-05-26T08:11:03.174Z,6212
2018-05-26T08:12:03.150Z,6256
2018-05-26T08:13:03.147Z,6196
2018-05-26T08:14:03.411Z,6404
2018-05-26T08:15:03.373Z,6432
2018-05-26T08:16:03.426Z,6436
2018-05-26T08:17:03.444Z,6436
2018-05-26T08:18:03.437Z,6472
2018-05-26T08:19:03.196Z,6524
2018-05-26T08:20:03.477Z,6492
2018-05-26T08:21:03.182Z,6228
2018-05-26T08:22:02.932Z,6376
2018-05-26T08:23:02.933Z,5928
2018-05-26T08:24:03.455Z,5760
2018-05-26T08:25:03.463Z,5568
2018-05-26T08:26:03.459Z,5540
2018-05-26T08:27:03.483Z,5960
2018-05-26T08:28:03.211Z,6476
2018-05-26T08:29:02.949Z,6028
2018-05-26T08:30:03.240Z,6516
2018-05-26T08:31:03.213Z,6612
2018-05-26T08:32:03.217Z,6628
2018-05-26T08:33:03.246Z,6284
2018-05-26T08:34:03.700Z,6744
2018-05-26T08:35:03.237Z,6596
2018-05-26T08:36:03.229Z,6412
2018-05-26T08:37:03.242Z,6240
2018-05-26T08:38:02.714Z,6436
2018-05-26T08:39:02.973Z,6824
2018-05-26T08:40:02.981Z,6844
2018-05-26T08:41:03.545Z,6536
2018-05-26T08:42:03.503Z,5588
2018-05-26T08:43:03.240Z,5440
2018-05-26T08:44:03.500Z,5588
2018-05-26T08:45:03.244Z,5700
2018-05-26T08:46:02.986Z,5540
2018-05-26T08:47:03.508Z,5716
2018-05-26T08:48:03.511Z,6868
2018-05-26T08:49:02.995Z,7656
2018-05-26T08:50:03.531Z,7912
2018-05-26T08:51:03.512Z,7464
2018-05-26T08:52:03.514Z,7788
2018-05-26T08:53:03.253Z,8584
2018-05-26T08:54:03.002Z,9176
2018-05-26T08:55:03.259Z,8596
2018-05-26T08:56:03.276Z,8248
2018-05-26T08:57:03.520Z,8476
2018-05-26T08:58:03.004Z,8504
2018-05-26T08:59:03.565Z,9348
2018-05-26T09:00:03.547Z,9620
2018-05-26T09:01:03.003Z,9300
2018-05-26T09:02:03.286Z,9356
2018-05-26T09:03:03.270Z,9240
2018-05-26T09:04:03.271Z,8704
2018-05-26T09:05:03.529Z,8160
2018-05-26T09:06:03.267Z,7664
2018-05-26T09:07:03.274Z,7208
2018-05-26T09:08:03.554Z,6748
2018-05-26T09:09:03.529Z,6588
2018-05-26T09:10:03.537Z,7136
2018-05-26T09:11:03.280Z,7696
2018-05-26T09:12:03.555Z,8584
2018-05-26T09:13:03.533Z,10044
2018-05-26T09:14:03.537Z,10872
2018-05-26T09:15:03.877Z,11584
2018-05-26T09:16:03.020Z,11436
2018-05-26T09:17:03.549Z,12172
2018-05-26T09:18:03.540Z,12148
2018-05-26T09:19:03.506Z,11816
2018-05-26T09:20:03.285Z,11284
2018-05-26T09:21:03.544Z,10620
2018-05-26T09:22:03.654Z,10020
2018-05-26T09:23:03.565Z,10236
2018-05-26T09:24:03.310Z,11600
2018-05-26T09:25:03.052Z,12084
2018-05-26T09:26:03.292Z,11848
2018-05-26T09:27:03.563Z,11428
2018-05-26T09:28:03.295Z,10772
2018-05-26T09:29:03.297Z,10352
2018-05-26T09:30:03.781Z,10028
2018-05-26T09:31:03.588Z,9424
2018-05-26T09:32:03.555Z,8916
2018-05-26T09:33:03.568Z,8388
2018-05-26T09:34:03.261Z,8032
2018-05-26T09:35:03.563Z,7880
2018-05-26T09:36:03.311Z,7748
2018-05-26T09:37:02.787Z,7692
2018-05-26T09:38:03.309Z,7692
2018-05-26T09:39:03.550Z,7672
2018-05-26T09:40:03.427Z,7632
2018-05-26T09:41:03.311Z,7588
2018-05-26T09:42:03.313Z,7568
2018-05-26T09:43:03.072Z,7668
2018-05-26T09:44:03.313Z,7764
2018-05-26T09:45:03.059Z,7592
2018-05-26T09:46:03.319Z,7384
2018-05-26T09:47:03.066Z,7096
2018-05-26T09:48:03.587Z,6876
2018-05-26T09:49:03.529Z,6828
2018-05-26T09:50:03.330Z,6664
2018-05-26T09:51:03.598Z,6556
2018-05-26T09:52:03.590Z,6488
2018-05-26T09:53:03.332Z,6460
2018-05-26T09:54:03.339Z,6392
2018-05-26T09:55:03.080Z,6316
2018-05-26T09:56:03.428Z,6208
2018-05-26T09:57:02.825Z,6116
2018-05-26T09:58:03.341Z,6076
2018-05-26T09:59:03.341Z,6048
2018-05-26T10:00:03.088Z,6012
2018-05-26T10:01:03.346Z,5964
2018-05-26T10:02:03.355Z,5944
2018-05-26T10:03:03.578Z,5916
2018-05-26T10:04:03.358Z,5948
2018-05-26T10:05:03.639Z,6084
2018-05-26T10:06:03.362Z,6120
2018-05-26T10:07:03.362Z,6180
2018-05-26T10:08:03.373Z,6344
2018-05-26T10:09:03.368Z,6656
2018-05-26T10:10:03.386Z,6732
2018-05-26T10:11:03.349Z,6736
2018-05-26T10:12:03.638Z,6556
2018-05-26T10:13:03.372Z,6392
2018-05-26T10:14:03.119Z,6272
2018-05-26T10:15:03.596Z,6204
2018-05-26T10:16:03.638Z,6144
2018-05-26T10:17:03.635Z,6080
2018-05-26T10:18:03.123Z,6068
2018-05-26T10:19:03.389Z,6224
2018-05-26T10:20:03.493Z,6092
2018-05-26T10:21:03.671Z,6124
2018-05-26T10:22:03.394Z,6096
2018-05-26T10:23:03.141Z,6188
2018-05-26T10:24:03.395Z,6316
2018-05-26T10:25:03.407Z,6464
2018-05-26T10:26:03.395Z,6716
2018-05-26T10:27:03.397Z,7020
2018-05-26T10:28:03.658Z,7016
2018-05-26T10:29:03.407Z,6336
2018-05-26T10:30:03.845Z,6528
2018-05-26T10:31:03.386Z,6536
2018-05-26T10:32:03.405Z,6532
2018-05-26T10:33:03.151Z,6444
2018-05-26T10:34:03.446Z,6312
2018-05-26T10:35:03.415Z,6244
2018-05-26T10:36:03.417Z,6196
2018-05-26T10:37:03.692Z,6100
2018-05-26T10:38:03.452Z,6028
2018-05-26T10:39:03.679Z,5984
2018-05-26T10:40:03.169Z,5964
2018-05-26T10:41:03.423Z,6028
2018-05-26T10:42:03.684Z,6124
2018-05-26T10:43:03.694Z,6252
2018-05-26T10:44:03.689Z,6536
2018-05-26T10:45:03.176Z,6924
2018-05-26T10:46:03.454Z,7428
2018-05-26T10:47:03.437Z,7720
2018-05-26T10:48:03.437Z,7736
2018-05-26T10:49:03.442Z,7580
2018-05-26T10:50:03.956Z,7444
2018-05-26T10:51:03.446Z,7292
2018-05-26T10:52:03.189Z,7204
2018-05-26T10:53:03.669Z,7032
2018-05-26T10:54:03.936Z,6988
2018-05-26T10:55:03.728Z,7100
2018-05-26T10:56:03.538Z,7032
2018-05-26T10:57:03.728Z,6912
2018-05-26T10:58:03.203Z,6712
2018-05-26T10:59:03.748Z,6592
2018-05-26T11:00:03.731Z,6616
2018-05-26T11:01:03.229Z,6316
2018-05-26T11:02:03.482Z,6636
2018-05-26T11:03:03.372Z,6732
2018-05-26T11:04:03.760Z,6876
2018-05-26T11:05:03.222Z,7040
2018-05-26T11:06:03.309Z,6748
2018-05-26T11:07:03.485Z,6896
2018-05-26T11:08:03.224Z,6936
2018-05-26T11:09:03.953Z,7396
2018-05-26T11:10:03.770Z,7916
2018-05-26T11:11:03.492Z,8060
2018-05-26T11:12:03.760Z,8072
2018-05-26T11:13:03.751Z,8072
2018-05-26T11:14:03.242Z,8296
2018-05-26T11:15:03.776Z,8752
2018-05-26T11:16:03.511Z,9188
2018-05-26T11:17:03.560Z,8728
2018-05-26T11:18:04.406Z,8984
2018-05-26T11:19:03.668Z,9152
2018-05-26T11:20:03.814Z,9164
2018-05-26T11:21:03.776Z,8856
2018-05-26T11:22:03.535Z,8520
2018-05-26T11:23:03.586Z,8460
2018-05-26T11:24:03.240Z,8620
2018-05-26T11:25:03.829Z,8516
2018-05-26T11:26:03.649Z,8448
2018-05-26T11:27:03.526Z,8696
2018-05-26T11:28:03.532Z,8940
2018-05-26T11:29:03.868Z,9524
2018-05-26T11:30:03.556Z,10472
2018-05-26T11:31:03.944Z,10820
2018-05-26T11:32:03.544Z,10280
2018-05-26T11:33:03.806Z,9720
2018-05-26T11:34:03.287Z,9108
2018-05-26T11:35:03.815Z,8368
2018-05-26T11:36:03.560Z,8044
2018-05-26T11:37:03.048Z,7568
2018-05-26T11:38:03.580Z,7020
2018-05-26T11:39:03.585Z,6688
2018-05-26T11:40:03.567Z,6060
2018-05-26T11:41:03.828Z,5420
2018-05-26T11:42:03.577Z,5168
2018-05-26T11:43:03.830Z,5120
2018-05-26T11:44:03.845Z,5084
2018-05-26T11:45:03.581Z,4996
2018-05-26T11:46:03.578Z,5100
2018-05-26T11:47:03.063Z,5288
2018-05-26T11:48:03.819Z,5428
2018-05-26T11:49:03.586Z,5616
2018-05-26T11:50:03.845Z,5608
2018-05-26T11:51:03.593Z,5620
2018-05-26T11:52:03.344Z,5464
2018-05-26T11:53:03.593Z,5168
2018-05-26T11:54:03.873Z,4924
2018-05-26T11:55:03.615Z,4800
2018-05-26T11:56:03.545Z,4608
2018-05-26T11:57:03.868Z,4496
2018-05-26T11:58:03.622Z,4680
2018-05-26T11:59:03.087Z,4856
2018-05-26T12:00:03.606Z,4880
2018-05-26T12:01:03.866Z,5200
2018-05-26T12:02:03.709Z,5184
2018-05-26T12:03:03.403Z,5224
2018-05-26T12:04:03.610Z,5044
2018-05-26T12:05:03.362Z,4660
2018-05-26T12:06:03.614Z,4372
2018-05-26T12:07:03.616Z,4120
2018-05-26T12:08:03.612Z,3896
2018-05-26T12:09:03.655Z,3800
2018-05-26T12:10:03.102Z,3856
2018-05-26T12:11:03.788Z,3952
2018-05-26T12:12:03.921Z,4008
2018-05-26T12:13:03.365Z,4100
2018-05-26T12:14:03.623Z,4308
2018-05-26T12:15:03.624Z,4392
2018-05-26T12:16:03.367Z,4568
2018-05-26T12:17:03.370Z,4776
2018-05-26T12:18:03.374Z,5136
2018-05-26T12:19:03.924Z,5672
2018-05-26T12:20:03.647Z,6284
2018-05-26T12:21:03.634Z,6784
2018-05-26T12:22:03.375Z,7024
2018-05-26T12:23:03.643Z,7124
2018-05-26T12:24:03.643Z,7212
2018-05-26T12:25:03.658Z,7412
2018-05-26T12:26:03.127Z,7756
2018-05-26T12:27:03.770Z,8032
2018-05-26T12:28:03.920Z,8396
2018-05-26T12:29:03.909Z,8356
2018-05-26T12:30:03.659Z,8384
2018-05-26T12:31:03.644Z,8440
2018-05-26T12:32:03.642Z,8680
2018-05-26T12:33:03.653Z,8876
2018-05-26T12:34:04.076Z,9200
2018-05-26T12:35:03.905Z,9492
2018-05-26T12:36:03.388Z,10236
2018-05-26T12:37:03.395Z,11032
2018-05-26T12:38:03.399Z,11544
2018-05-26T12:39:03.654Z,12328
2018-05-26T12:40:03.759Z,13124
2018-05-26T12:41:03.663Z,13368
2018-05-26T12:42:03.658Z,13316
2018-05-26T12:43:03.916Z,13540
2018-05-26T12:44:03.398Z,13876
2018-05-26T12:45:03.927Z,14448
2018-05-26T12:46:03.663Z,14736
2018-05-26T12:47:03.414Z,14552
2018-05-26T12:48:03.671Z,14252
2018-05-26T12:49:03.674Z,14092
2018-05-26T12:50:03.925Z,13816
2018-05-26T12:51:03.932Z,13348
2018-05-26T12:52:03.928Z,12728
2018-05-26T12:53:03.415Z,12076
2018-05-26T12:54:03.935Z,11320
2018-05-26T12:55:03.428Z,10696
2018-05-26T12:56:03.690Z,10268
2018-05-26T12:57:03.696Z,10188
2018-05-26T12:58:03.960Z,10132
2018-05-26T12:59:03.444Z,9780
2018-05-26T13:00:03.434Z,9332
2018-05-26T13:01:03.709Z,9076
2018-05-26T13:02:03.714Z,9024
2018-05-26T13:03:03.969Z,9108
2018-05-26T13:04:03.444Z,9184
2018-05-26T13:05:03.700Z,9260
2018-05-26T13:06:03.719Z,9148
2018-05-26T13:07:03.972Z,8792
2018-05-26T13:08:03.969Z,8444
2018-05-26T13:09:03.463Z,8208
2018-05-26T13:10:03.715Z,8196
2018-05-26T13:11:03.981Z,8268
2018-05-26T13:12:03.979Z,8396
2018-05-26T13:13:03.729Z,8624
2018-05-26T13:14:03.465Z,8888
2018-05-26T13:15:03.469Z,9168
2018-05-26T13:16:03.729Z,9432
2018-05-26T13:17:04.014Z,9600
2018-05-26T13:18:03.739Z,9672
2018-05-26T13:19:03.996Z,9488
2018-05-26T13:20:03.999Z,9132
2018-05-26T13:21:03.484Z,8812
2018-05-26T13:22:03.710Z,8592
2018-05-26T13:23:03.746Z,8436
2018-05-26T13:24:03.748Z,8332
2018-05-26T13:25:03.761Z,8244
2018-05-26T13:26:03.496Z,8200
2018-05-26T13:27:04.025Z,8276
2018-05-26T13:28:03.505Z,8552
2018-05-26T13:29:03.773Z,8824
2018-05-26T13:30:04.028Z,9000
2018-05-26T13:31:03.772Z,9052
2018-05-26T13:32:03.770Z,9036
2018-05-26T13:33:03.779Z,8984